Time;durP1;ratioP1;P1;durP2;ratioP2;P2;SDS_P1;SDS_P2;PMS_P1;PMS_P2;Temp;Humidity;BMP_temperature;BMP_pressure;BME280_temperature;BME280_humidity;BME280_pressure;Samples;Min_cycle;Max_cycle;Signal;HPM_P1;HPM_P2
2023/06/18 00:02:16;;;;;;;3.50;1.10;;;14.90;99.90;;;;;;5071487;28;20198;-84
2023/06/18 00:04:47;;;;;;;1.75;1.17;;;15.10;99.90;;;;;;5071596;28;20199;-84
2023/06/18 00:07:19;;;;;;;2.13;1.00;;;15.20;99.90;;;;;;5073144;28;20206;-84
2023/06/18 00:09:50;;;;;;;2.75;1.08;;;15.20;99.90;;;;;;5051512;28;20201;-85
2023/06/18 00:12:23;;;;;;;1.55;0.80;;;15.30;99.90;;;;;;5076647;28;20618;-81
2023/06/18 00:14:54;;;;;;;1.42;1.00;;;15.40;99.90;;;;;;5078528;28;20204;-81
2023/06/18 00:17:27;;;;;;;2.28;0.93;;;15.50;99.90;;;;;;5077026;28;20227;-84
2023/06/18 00:19:58;;;;;;;2.20;0.80;;;15.50;99.90;;;;;;5107842;28;20225;-84
2023/06/18 00:22:29;;;;;;;1.40;0.70;;;15.60;99.90;;;;;;5094925;28;20192;-83
2023/06/18 00:25:01;;;;;;;0.80;0.60;;;15.70;99.90;;;;;;5087487;28;20188;-84
2023/06/18 00:27:32;;;;;;;2.28;0.75;;;15.80;99.90;;;;;;5092180;28;20590;-84
2023/06/18 00:30:04;;;;;;;0.85;0.60;;;16.00;99.90;;;;;;5059874;28;20194;-85
2023/06/18 00:32:38;;;;;;;1.40;0.75;;;16.10;99.90;;;;;;5091747;28;20195;-83
2023/06/18 00:35:10;;;;;;;1.10;0.73;;;16.20;99.90;;;;;;5074353;28;20195;-83
2023/06/18 00:37:43;;;;;;;1.42;0.80;;;16.20;99.90;;;;;;5067318;28;20243;-83
2023/06/18 00:40:15;;;;;;;2.63;0.80;;;16.40;99.90;;;;;;5091807;28;20260;-84
2023/06/18 00:42:48;;;;;;;1.55;0.90;;;16.50;99.90;;;;;;5090745;28;20662;-84
2023/06/18 00:45:20;;;;;;;1.60;0.90;;;16.50;99.90;;;;;;5090768;28;20202;-83
2023/06/18 00:47:54;;;;;;;2.33;0.70;;;16.60;99.90;;;;;;5072932;28;20207;-84
2023/06/18 00:50:26;;;;;;;1.23;0.60;;;16.70;99.90;;;;;;5070730;28;20681;-83
2023/06/18 00:52:59;;;;;;;0.98;0.57;;;16.90;99.90;;;;;;5071228;28;20204;-84
2023/06/18 00:55:32;;;;;;;1.48;0.70;;;16.90;99.90;;;;;;5070951;28;20271;-84
2023/06/18 00:58:03;;;;;;;2.15;0.73;;;17.00;99.90;;;;;;5074069;28;20216;-84
2023/06/18 01:00:34;;;;;;;1.13;0.70;;;17.10;99.90;;;;;;5082159;28;20198;-84
2023/06/18 01:03:15;;;;;;;1.10;0.60;;;17.10;99.90;;;;;;5094859;28;20211;-83
2023/06/18 01:05:48;;;;;;;1.77;0.63;;;17.10;99.90;;;;;;5085967;28;20188;-83
2023/06/18 01:08:23;;;;;;;1.30;0.70;;;17.20;99.90;;;;;;5081695;28;20209;-83
2023/06/18 01:11:00;;;;;;;1.08;0.40;;;17.20;99.90;;;;;;5074789;28;20223;-82
2023/06/18 01:13:33;;;;;;;1.52;0.52;;;17.20;99.90;;;;;;5054636;28;20224;-82
2023/06/18 01:16:08;;;;;;;11.75;1.42;;;17.20;99.90;;;;;;5053616;28;20270;-83
2023/06/18 01:18:46;;;;;;;1.48;0.60;;;17.40;99.90;;;;;;5070939;28;20226;-83
2023/06/18 01:21:20;;;;;;;6.55;1.08;;;17.40;99.90;;;;;;5074916;28;20240;-83
2023/06/18 01:24:01;;;;;;;2.03;0.75;;;17.60;99.90;;;;;;5075098;28;20207;-84
2023/06/18 01:26:33;;;;;;;34.83;2.75;;;17.70;99.90;;;;;;5082248;28;20206;-83
2023/06/18 01:29:09;;;;;;;61.83;5.85;;;17.70;99.90;;;;;;5079582;28;20193;-83
2023/06/18 01:31:41;;;;;;;108.20;8.90;;;17.80;99.90;;;;;;5077708;28;20232;-82
2023/06/18 01:34:14;;;;;;;3.13;0.70;;;17.90;99.90;;;;;;5094542;28;20210;-83
2023/06/18 01:36:56;;;;;;;1.15;0.55;;;18.10;99.90;;;;;;5089121;28;20205;-83
2023/06/18 01:39:38;;;;;;;1.85;0.50;;;18.10;99.90;;;;;;5093202;28;20199;-83
2023/06/18 01:42:15;;;;;;;2.53;0.60;;;18.20;99.80;;;;;;5085581;28;20317;-83
2023/06/18 01:44:50;;;;;;;3.00;0.40;;;18.30;96.50;;;;;;5074233;28;20206;-82
2023/06/18 01:47:26;;;;;;;1.35;0.50;;;18.30;96.10;;;;;;5072257;28;20349;-83
2023/06/18 01:50:05;;;;;;;1.70;0.50;;;18.40;95.40;;;;;;5074809;28;20191;-83
2023/06/18 01:52:40;;;;;;;1.95;0.32;;;18.50;93.80;;;;;;5074652;28;20769;-84
2023/06/18 01:55:11;;;;;;;0.90;0.40;;;18.50;94.30;;;;;;5074380;28;20195;-83
2023/06/18 01:57:43;;;;;;;1.40;0.40;;;18.60;95.50;;;;;;5077592;28;20289;-83
2023/06/18 02:00:15;;;;;;;1.52;0.52;;;18.70;92.70;;;;;;5082308;28;20200;-82
2023/06/18 02:02:46;;;;;;;1.95;0.73;;;18.60;91.60;;;;;;5080217;28;20195;-82
2023/06/18 02:05:21;;;;;;;1.67;0.50;;;18.70;91.30;;;;;;5076187;28;20196;-82
2023/06/18 02:07:52;;;;;;;1.33;0.50;;;18.80;91.80;;;;;;5074399;28;20192;-82
2023/06/18 02:10:23;;;;;;;1.60;0.60;;;18.90;91.40;;;;;;5073761;28;20557;-83
2023/06/18 02:12:54;;;;;;;2.22;0.85;;;19.00;89.80;;;;;;5073975;28;20238;-83
2023/06/18 02:15:25;;;;;;;1.67;0.55;;;18.90;89.40;;;;;;5074321;28;20235;-82
2023/06/18 02:17:56;;;;;;;1.85;0.57;;;19.00;89.20;;;;;;5075785;28;20692;-83
2023/06/18 02:20:30;;;;;;;1.13;0.60;;;19.10;90.10;;;;;;5093536;28;20684;-82
2023/06/18 02:23:02;;;;;;;1.25;0.60;;;19.10;87.30;;;;;;5083889;28;20238;-82
2023/06/18 02:25:34;;;;;;;1.80;0.70;;;19.10;87.00;;;;;;5074258;28;20200;-83
2023/06/18 02:28:05;;;;;;;1.42;0.57;;;19.20;87.70;;;;;;5073777;28;20629;-84
2023/06/18 02:30:40;;;;;;;2.65;0.60;;;19.20;89.00;;;;;;5078250;28;20626;-83
2023/06/18 02:33:12;;;;;;;3.10;0.65;;;19.30;87.30;;;;;;5086527;28;20211;-84
2023/06/18 02:35:45;;;;;;;2.40;0.80;;;19.20;85.60;;;;;;5072530;28;20218;-83
2023/06/18 02:38:17;;;;;;;1.83;0.50;;;19.10;85.90;;;;;;5074146;28;20216;-83
2023/06/18 02:40:48;;;;;;;1.45;0.60;;;19.20;85.60;;;;;;5073937;28;20566;-83
2023/06/18 02:43:22;;;;;;;2.97;0.70;;;19.20;84.40;;;;;;5074617;28;20207;-84
2023/06/18 02:45:53;;;;;;;1.73;0.60;;;19.20;87.00;;;;;;5078947;28;20186;-83
2023/06/18 02:48:24;;;;;;;3.00;0.95;;;19.30;86.80;;;;;;5094266;28;20195;-84
2023/06/18 02:50:57;;;;;;;1.15;0.70;;;19.30;83.90;;;;;;5080165;28;20714;-84
2023/06/18 02:53:32;;;;;;;1.98;0.80;;;19.30;84.00;;;;;;5093751;28;20207;-84
2023/06/18 02:56:03;;;;;;;2.60;0.60;;;19.50;84.20;;;;;;5074200;28;20336;-82
2023/06/18 02:58:35;;;;;;;1.30;0.47;;;19.50;83.90;;;;;;5081926;28;20331;-83
2023/06/18 03:01:07;;;;;;;1.38;0.60;;;19.50;82.90;;;;;;5094260;28;20577;-83
2023/06/18 03:03:38;;;;;;;2.05;0.80;;;19.50;82.10;;;;;;5093015;28;20655;-83
2023/06/18 03:06:12;;;;;;;1.55;0.60;;;19.60;82.20;;;;;;5076092;28;20192;-83
2023/06/18 03:08:43;;;;;;;1.98;0.60;;;19.50;80.70;;;;;;5058612;28;20188;-82
2023/06/18 03:11:16;;;;;;;1.35;0.77;;;19.50;81.40;;;;;;5067830;28;20196;-83
2023/06/18 03:13:49;;;;;;;3.78;0.60;;;19.50;81.10;;;;;;5065971;28;20647;-83
2023/06/18 03:16:23;;;;;;;1.13;0.52;;;19.50;80.00;;;;;;5055251;28;20195;-83
2023/06/18 03:18:54;;;;;;;1.58;0.70;;;19.50;77.30;;;;;;5072855;28;20246;-82
2023/06/18 03:21:27;;;;;;;1.63;0.82;;;19.60;77.80;;;;;;5072797;28;20192;-83
2023/06/18 03:24:01;;;;;;;2.58;0.70;;;19.60;78.40;;;;;;5069230;28;20283;-83
2023/06/18 03:26:36;;;;;;;3.03;0.88;;;19.70;78.30;;;;;;5072855;28;20196;-83
2023/06/18 03:29:08;;;;;;;1.98;0.70;;;19.60;76.90;;;;;;5073830;28;20191;-84
2023/06/18 03:31:40;;;;;;;1.33;0.52;;;19.60;76.80;;;;;;5075099;28;20210;-82
2023/06/18 03:34:12;;;;;;;1.27;0.65;;;19.60;76.60;;;;;;5080296;28;20308;-82
2023/06/18 03:36:46;;;;;;;2.60;0.60;;;19.60;75.50;;;;;;5093367;28;20195;-84
2023/06/18 03:39:18;;;;;;;1.67;0.50;;;19.70;73.70;;;;;;5083336;28;20223;-84
2023/06/18 03:41:49;;;;;;;0.90;0.40;;;19.70;68.70;;;;;;5071929;28;20277;-84
2023/06/18 03:44:21;;;;;;;5.50;0.40;;;19.60;64.90;;;;;;5072974;28;20206;-84
2023/06/18 03:46:52;;;;;;;0.93;0.40;;;19.50;63.60;;;;;;5072839;28;20196;-84
2023/06/18 03:49:23;;;;;;;1.33;0.43;;;19.40;65.80;;;;;;5072507;28;20207;-82
2023/06/18 03:51:56;;;;;;;1.65;0.52;;;19.40;63.50;;;;;;5083081;28;20187;-83
2023/06/18 03:54:27;;;;;;;2.83;0.40;;;19.40;63.00;;;;;;5085639;28;20207;-83
2023/06/18 03:56:58;;;;;;;1.13;0.50;;;19.30;62.30;;;;;;5081033;28;20219;-83
2023/06/18 03:59:30;;;;;;;3.63;0.47;;;19.30;63.40;;;;;;5071872;28;20591;-82
2023/06/18 04:02:01;;;;;;;0.55;0.30;;;19.30;64.40;;;;;;5073055;28;20192;-83
2023/06/18 04:04:33;;;;;;;0.30;0.20;;;19.10;63.80;;;;;;5081208;28;20214;-83
2023/06/18 04:07:06;;;;;;;1.15;0.40;;;19.20;63.50;;;;;;5087234;28;20199;-83
2023/06/18 04:09:37;;;;;;;1.20;0.40;;;19.30;64.40;;;;;;5072009;28;20230;-83
2023/06/18 04:12:09;;;;;;;2.25;0.50;;;19.40;64.40;;;;;;5071827;28;20247;-82
2023/06/18 04:14:41;;;;;;;1.63;0.40;;;19.40;63.00;;;;;;5057184;28;20569;-82
2023/06/18 04:17:13;;;;;;;0.75;0.30;;;19.40;64.20;;;;;;5073716;28;20211;-82
2023/06/18 04:19:44;;;;;;;0.90;0.40;;;19.50;63.80;;;;;;5072454;28;20226;-83
2023/06/18 04:22:17;;;;;;;2.97;0.60;;;19.50;62.60;;;;;;5077951;28;20614;-82
2023/06/18 04:24:49;;;;;;;4.93;0.55;;;19.40;62.20;;;;;;5080400;28;20698;-83
2023/06/18 04:27:24;;;;;;;0.85;0.50;;;19.50;62.60;;;;;;5087642;28;20191;-82
2023/06/18 04:29:56;;;;;;;2.30;0.50;;;19.50;63.30;;;;;;5073703;28;20210;-82
2023/06/18 04:32:30;;;;;;;1.30;0.60;;;19.60;63.80;;;;;;5090375;28;20206;-84
2023/06/18 04:35:01;;;;;;;1.80;0.50;;;19.60;64.80;;;;;;5076860;28;20187;-83
2023/06/18 04:37:35;;;;;;;1.77;0.65;;;19.50;62.70;;;;;;5098561;28;20205;-83
2023/06/18 04:40:07;;;;;;;0.93;0.55;;;19.60;62.80;;;;;;5098401;28;20195;-82
2023/06/18 04:42:38;;;;;;;0.82;0.50;;;19.60;61.80;;;;;;5067890;28;20659;-83
2023/06/18 04:45:10;;;;;;;2.50;0.65;;;19.60;61.40;;;;;;5080921;28;20187;-83
2023/06/18 04:47:41;;;;;;;2.20;0.63;;;19.60;61.90;;;;;;5076324;28;20279;-83
2023/06/18 04:50:13;;;;;;;1.20;1.00;;;19.60;61.70;;;;;;5077473;28;20215;-83
2023/06/18 04:52:46;;;;;;;2.50;1.10;;;19.50;61.40;;;;;;5077723;28;20587;-82
2023/06/18 04:55:18;;;;;;;1.08;0.60;;;19.40;62.20;;;;;;5083746;28;20256;-84
2023/06/18 04:57:49;;;;;;;1.25;0.88;;;19.30;63.40;;;;;;5085830;28;20203;-83
2023/06/18 05:00:26;;;;;;;1.13;0.60;;;19.20;62.80;;;;;;5059296;28;20600;-84
2023/06/18 05:02:58;;;;;;;1.85;0.98;;;19.20;62.10;;;;;;5083916;28;20183;-84
2023/06/18 05:05:30;;;;;;;3.50;1.98;;;19.10;63.20;;;;;;5078131;28;20599;-83
2023/06/18 05:08:03;;;;;;;2.58;1.67;;;19.10;63.30;;;;;;5076502;28;20206;-83
2023/06/18 05:10:35;;;;;;;4.13;1.23;;;19.00;64.20;;;;;;5075727;28;20559;-82
2023/06/18 05:13:06;;;;;;;1.48;0.80;;;18.90;64.70;;;;;;5077011;28;20230;-83
2023/06/18 05:15:37;;;;;;;1.17;0.98;;;19.00;65.40;;;;;;5077332;28;20238;-83
2023/06/18 05:18:09;;;;;;;3.70;1.23;;;18.90;65.90;;;;;;5075562;28;20223;-81
2023/06/18 05:20:40;;;;;;;1.95;1.15;;;18.90;66.20;;;;;;5075950;28;20204;-83
2023/06/18 05:23:13;;;;;;;1.83;1.60;;;18.90;67.00;;;;;;5081490;28;20201;-82
2023/06/18 05:25:45;;;;;;;2.58;0.90;;;18.90;66.70;;;;;;5096280;28;20195;-83
2023/06/18 05:28:19;;;;;;;0.98;0.65;;;18.90;66.90;;;;;;5094148;28;20203;-83
2023/06/18 05:30:50;;;;;;;1.25;0.70;;;18.70;66.60;;;;;;5081311;28;20200;-83
2023/06/18 05:33:21;;;;;;;3.00;0.90;;;18.70;67.90;;;;;;5076153;28;20196;-82
2023/06/18 05:35:53;;;;;;;0.77;0.63;;;18.70;66.50;;;;;;5075749;28;20196;-82
2023/06/18 05:38:26;;;;;;;1.10;0.57;;;18.70;66.80;;;;;;5074009;28;20226;-81
2023/06/18 05:40:57;;;;;;;3.78;1.20;;;18.60;66.80;;;;;;5078357;28;20260;-82
2023/06/18 05:43:28;;;;;;;1.60;0.60;;;18.60;67.60;;;;;;5087711;28;20289;-82
2023/06/18 05:45:59;;;;;;;1.23;0.70;;;18.60;67.30;;;;;;5057272;28;20189;-82
2023/06/18 05:48:35;;;;;;;1.65;0.60;;;18.60;67.50;;;;;;5066013;28;20192;-82
2023/06/18 05:51:07;;;;;;;2.28;0.70;;;18.60;67.90;;;;;;5058930;28;20275;-83
2023/06/18 05:53:41;;;;;;;2.35;0.70;;;18.70;66.80;;;;;;5066691;28;20268;-83
2023/06/18 05:56:12;;;;;;;2.15;0.60;;;18.60;66.90;;;;;;5078008;28;20208;-83
2023/06/18 05:58:43;;;;;;;1.27;0.60;;;18.60;67.20;;;;;;5062909;28;20710;-83
2023/06/18 06:01:14;;;;;;;1.15;0.60;;;18.50;68.00;;;;;;5074998;28;20203;-83
2023/06/18 06:03:45;;;;;;;1.08;0.70;;;18.50;68.30;;;;;;5083683;28;20227;-80
2023/06/18 06:06:17;;;;;;;0.75;0.63;;;18.50;67.80;;;;;;5075900;28;20260;-82
2023/06/18 06:08:52;;;;;;;1.27;0.70;;;18.40;68.30;;;;;;5074731;28;20194;-82
2023/06/18 06:11:23;;;;;;;1.15;0.77;;;18.40;69.40;;;;;;5074102;28;20646;-83
2023/06/18 06:13:58;;;;;;;2.05;0.50;;;18.30;67.80;;;;;;5081824;28;20254;-82
2023/06/18 06:16:29;;;;;;;1.30;0.55;;;18.20;68.40;;;;;;5096272;28;20198;-82
2023/06/18 06:19:00;;;;;;;1.38;0.60;;;18.20;68.40;;;;;;5094568;28;20223;-82
2023/06/18 06:21:33;;;;;;;2.33;0.68;;;18.20;69.00;;;;;;5095260;28;20279;-83
2023/06/18 06:24:09;;;;;;;2.30;0.50;;;18.20;70.20;;;;;;5092238;28;20195;-82
2023/06/18 06:26:40;;;;;;;0.90;0.70;;;18.10;71.30;;;;;;5077729;28;20199;-81
2023/06/18 06:29:11;;;;;;;0.82;0.50;;;18.10;72.30;;;;;;5065376;28;20196;-83
2023/06/18 06:31:43;;;;;;;0.60;0.50;;;17.90;72.10;;;;;;5082558;28;20191;-83
2023/06/18 06:34:15;;;;;;;0.55;0.40;;;17.60;73.00;;;;;;5084536;28;20199;-83
2023/06/18 06:36:48;;;;;;;3.28;0.70;;;17.40;74.20;;;;;;5075770;28;20229;-81
2023/06/18 06:39:21;;;;;;;1.63;0.63;;;17.30;74.90;;;;;;5073843;28;20622;-83
2023/06/18 06:41:55;;;;;;;1.15;0.55;;;17.30;76.30;;;;;;5074891;28;20562;-83
2023/06/18 06:44:27;;;;;;;1.52;0.63;;;17.20;75.60;;;;;;5075582;28;20245;-83
2023/06/18 06:46:58;;;;;;;2.05;0.50;;;17.10;76.10;;;;;;5075483;28;20230;-83
2023/06/18 06:49:30;;;;;;;1.65;0.50;;;17.00;76.30;;;;;;5074587;28;20204;-84
2023/06/18 06:52:01;;;;;;;0.93;0.80;;;17.00;76.40;;;;;;5076445;28;20544;-84
2023/06/18 06:54:40;;;;;;;2.05;1.38;;;17.00;76.40;;;;;;5074162;28;20225;-84
2023/06/18 06:57:11;;;;;;;1.15;0.80;;;16.90;77.10;;;;;;5074086;28;20223;-83
2023/06/18 06:59:42;;;;;;;0.98;0.90;;;16.60;78.30;;;;;;5075271;28;20219;-84
2023/06/18 07:02:13;;;;;;;0.70;0.60;;;16.60;78.90;;;;;;5073737;28;20199;-83
2023/06/18 07:04:47;;;;;;;1.75;0.93;;;16.50;79.00;;;;;;5084377;28;20200;-83
2023/06/18 07:07:19;;;;;;;3.65;1.30;;;16.60;79.80;;;;;;5073564;28;20740;-84
2023/06/18 07:09:52;;;;;;;1.60;1.40;;;16.40;80.30;;;;;;5073150;28;20654;-84
2023/06/18 07:12:24;;;;;;;2.70;1.80;;;16.40;81.10;;;;;;5083022;28;20715;-84
2023/06/18 07:14:55;;;;;;;1.20;1.10;;;16.30;81.60;;;;;;5080368;28;20662;-83
2023/06/18 07:17:27;;;;;;;2.40;1.05;;;16.30;81.30;;;;;;5075841;28;20202;-84
2023/06/18 07:19:58;;;;;;;0.80;0.70;;;16.30;81.70;;;;;;5074362;28;20227;-84
2023/06/18 07:22:29;;;;;;;0.70;0.60;;;16.20;82.20;;;;;;5077134;28;20195;-84
2023/06/18 07:25:03;;;;;;;1.15;0.80;;;16.10;82.20;;;;;;5096194;28;20207;-84
2023/06/18 07:27:34;;;;;;;1.02;0.70;;;16.00;83.30;;;;;;5067594;28;20192;-84
2023/06/18 07:30:05;;;;;;;0.77;0.52;;;16.00;83.80;;;;;;5053296;28;20212;-84
2023/06/18 07:32:36;;;;;;;1.30;0.90;;;16.00;84.20;;;;;;5087199;28;20642;-84
2023/06/18 07:35:10;;;;;;;3.55;0.90;;;15.90;84.60;;;;;;5096235;28;20199;-83
2023/06/18 07:37:41;;;;;;;1.75;1.05;;;15.90;85.80;;;;;;5094918;28;20282;-84
2023/06/18 07:40:16;;;;;;;2.65;1.20;;;15.90;85.20;;;;;;5075664;28;20240;-84
2023/06/18 07:42:48;;;;;;;1.67;1.08;;;15.80;86.40;;;;;;5077066;28;20200;-83
2023/06/18 07:45:19;;;;;;;1.77;1.00;;;15.80;86.60;;;;;;5072048;28;20570;-84
2023/06/18 07:47:50;;;;;;;1.20;1.08;;;15.90;86.90;;;;;;5072519;28;20210;-84
2023/06/18 07:50:22;;;;;;;3.17;1.75;;;15.80;87.30;;;;;;5074243;28;20203;-84
2023/06/18 07:52:53;;;;;;;2.72;2.13;;;15.70;87.40;;;;;;5079239;28;20199;-84
2023/06/18 07:55:26;;;;;;;3.40;2.55;;;15.70;87.30;;;;;;5075411;28;20191;-84
2023/06/18 07:57:57;;;;;;;1.67;1.23;;;15.60;87.80;;;;;;5071716;28;20203;-85
2023/06/18 08:00:28;;;;;;;2.25;1.45;;;15.60;88.50;;;;;;5070673;28;20216;-84
2023/06/18 08:03:02;;;;;;;3.47;0.90;;;15.50;89.50;;;;;;5071121;28;20180;-84
2023/06/18 08:05:34;;;;;;;2.13;1.20;;;15.50;90.00;;;;;;5071237;28;20248;-85
2023/06/18 08:08:07;;;;;;;1.60;1.25;;;15.50;90.50;;;;;;5070772;28;20202;-84
2023/06/18 08:10:43;;;;;;;5.20;2.10;;;15.50;90.80;;;;;;5071349;28;20284;-85
2023/06/18 08:13:15;;;;;;;2.15;1.65;;;15.40;91.60;;;;;;5070642;28;20262;-85
2023/06/18 08:15:47;;;;;;;2.25;1.80;;;15.40;91.20;;;;;;5071421;28;20206;-84
2023/06/18 08:18:18;;;;;;;1.85;1.65;;;15.30;91.60;;;;;;5068301;28;20196;-84
2023/06/18 08:20:49;;;;;;;1.95;1.50;;;15.30;91.90;;;;;;5051026;28;20228;-84
2023/06/18 08:23:21;;;;;;;2.58;1.20;;;15.30;91.90;;;;;;5063501;28;20575;-85
2023/06/18 08:25:54;;;;;;;2.67;1.80;;;15.30;91.50;;;;;;5070795;28;20202;-84
2023/06/18 08:28:25;;;;;;;3.63;1.10;;;15.20;91.30;;;;;;5071903;28;20677;-84
2023/06/18 08:30:57;;;;;;;3.25;1.23;;;15.10;91.30;;;;;;5074937;28;20214;-84
2023/06/18 08:33:28;;;;;;;1.00;0.90;;;15.00;91.40;;;;;;5092962;28;20206;-84
2023/06/18 08:35:59;;;;;;;1.08;0.93;;;15.10;91.20;;;;;;5094942;28;20203;-84
2023/06/18 08:38:30;;;;;;;2.42;1.30;;;15.00;91.30;;;;;;5094415;28;20196;-83
2023/06/18 08:41:05;;;;;;;2.33;1.35;;;14.90;91.60;;;;;;5084776;28;20224;-83
2023/06/18 08:43:37;;;;;;;1.30;0.80;;;14.80;91.90;;;;;;5087973;28;20198;-83
2023/06/18 08:46:14;;;;;;;1.23;0.90;;;14.80;91.90;;;;;;5089132;28;20195;-84
2023/06/18 08:48:50;;;;;;;4.05;1.50;;;14.90;92.00;;;;;;5072273;28;20208;-85
2023/06/18 08:51:23;;;;;;;2.03;1.30;;;14.80;92.10;;;;;;5072131;28;20196;-85
2023/06/18 08:54:00;;;;;;;1.38;0.95;;;14.80;92.30;;;;;;5070516;28;20198;-85
2023/06/18 08:56:34;;;;;;;4.50;1.60;;;14.70;93.00;;;;;;5071346;28;20582;-85
2023/06/18 08:59:06;;;;;;;1.48;1.33;;;14.70;93.30;;;;;;5070566;28;20191;-84
2023/06/18 09:01:37;;;;;;;1.55;1.15;;;14.80;93.90;;;;;;5070723;28;20570;-84
2023/06/18 09:04:09;;;;;;;1.90;1.20;;;14.70;94.10;;;;;;5072774;28;20207;-85
2023/06/18 09:06:41;;;;;;;4.63;1.17;;;14.70;94.40;;;;;;5075630;28;20277;-85
2023/06/18 09:09:12;;;;;;;1.00;0.88;;;14.70;94.70;;;;;;5076939;28;20259;-83
2023/06/18 09:11:46;;;;;;;0.77;0.70;;;14.60;94.60;;;;;;5089333;28;20228;-84
2023/06/18 09:14:20;;;;;;;1.83;1.00;;;14.60;94.60;;;;;;5091082;28;20278;-84
2023/06/18 09:16:54;;;;;;;1.02;0.90;;;14.50;95.00;;;;;;5092433;28;20283;-84
2023/06/18 09:19:27;;;;;;;0.88;0.80;;;14.50;95.00;;;;;;5094185;28;20218;-85
2023/06/18 09:22:13;;;;;;;1.33;1.10;;;14.40;95.60;;;;;;5057419;28;20210;-83
2023/06/18 09:24:45;;;;;;;0.80;0.68;;;14.30;96.00;;;;;;5086809;28;20256;-83
2023/06/18 09:27:21;;;;;;;1.73;1.20;;;14.20;96.50;;;;;;5058114;28;20531;-83
2023/06/18 09:29:53;;;;;;;2.03;1.50;;;14.10;97.20;;;;;;5076106;28;20217;-82
2023/06/18 09:32:24;;;;;;;3.85;2.65;;;14.20;97.30;;;;;;5074585;28;20200;-84
2023/06/18 09:34:55;;;;;;;2.08;1.20;;;14.10;97.40;;;;;;5074373;28;20206;-83
2023/06/18 09:37:31;;;;;;;2.42;1.63;;;14.00;97.60;;;;;;5078848;28;20191;-83
2023/06/18 09:40:16;;;;;;;2.38;1.20;;;14.00;98.20;;;;;;5077502;28;20211;-83
2023/06/18 09:42:54;;;;;;;0.80;0.80;;;13.90;97.70;;;;;;5076585;28;20213;-83
2023/06/18 09:45:28;;;;;;;2.03;1.15;;;14.00;97.50;;;;;;5076288;28;20192;-83
2023/06/18 09:48:01;;;;;;;1.13;0.82;;;13.90;97.30;;;;;;5075501;28;20203;-84
2023/06/18 09:50:32;;;;;;;1.20;1.10;;;13.90;97.10;;;;;;5076048;28;20199;-84
2023/06/18 09:53:03;;;;;;;3.53;1.80;;;13.90;97.40;;;;;;5080398;28;20183;-84
2023/06/18 09:55:35;;;;;;;3.33;1.70;;;13.80;97.00;;;;;;5076939;28;20196;-85
2023/06/18 09:58:08;;;;;;;2.20;1.50;;;13.80;97.50;;;;;;5077763;28;20238;-83
2023/06/18 10:00:39;;;;;;;1.08;0.90;;;13.70;98.00;;;;;;5075187;28;20250;-83
2023/06/18 10:03:11;;;;;;;2.55;1.80;;;13.70;98.50;;;;;;5086590;28;20184;-84
2023/06/18 10:05:44;;;;;;;1.42;1.33;;;13.80;98.30;;;;;;5083600;28;20199;-85
2023/06/18 10:08:15;;;;;;;2.67;2.30;;;13.80;98.30;;;;;;5076519;28;20295;-84
2023/06/18 10:10:50;;;;;;;4.55;2.58;;;13.70;98.20;;;;;;5075572;28;20192;-85
2023/06/18 10:13:27;;;;;;;1.08;0.80;;;13.70;98.50;;;;;;5075026;28;20263;-83
2023/06/18 10:15:59;;;;;;;1.60;0.80;;;13.70;98.60;;;;;;5075794;28;20199;-84
2023/06/18 10:18:30;;;;;;;1.70;0.80;;;13.70;98.00;;;;;;5076439;28;20196;-84
2023/06/18 10:21:04;;;;;;;1.00;0.80;;;13.60;98.20;;;;;;5076519;28;20223;-84
2023/06/18 10:23:37;;;;;;;1.25;0.80;;;13.50;98.30;;;;;;5084160;28;20219;-83
2023/06/18 10:26:10;;;;;;;1.42;0.80;;;13.40;98.40;;;;;;5096010;28;20192;-83
2023/06/18 10:28:44;;;;;;;0.63;0.57;;;13.30;98.70;;;;;;5089944;28;20690;-83
2023/06/18 10:31:15;;;;;;;2.58;1.05;;;13.30;98.80;;;;;;5083580;28;20255;-83
2023/06/18 10:33:47;;;;;;;2.50;0.95;;;13.20;99.00;;;;;;5083443;28;20646;-84
2023/06/18 10:36:19;;;;;;;3.53;3.22;;;13.30;99.00;;;;;;5075053;28;20571;-84
2023/06/18 10:38:52;;;;;;;1.42;0.90;;;13.30;99.00;;;;;;5074227;28;20257;-84
2023/06/18 10:41:27;;;;;;;1.00;0.70;;;13.40;99.10;;;;;;5073325;28;20224;-84
2023/06/18 10:44:03;;;;;;;1.70;1.02;;;13.40;98.40;;;;;;5076480;28;20196;-84
2023/06/18 10:46:34;;;;;;;0.57;0.50;;;13.40;98.60;;;;;;5082195;28;20196;-83
2023/06/18 10:49:25;;;;;;;1.15;0.60;;;13.30;98.40;;;;;;5077285;28;20283;-85
2023/06/18 10:52:34;;;;;;;0.50;0.50;;;13.40;98.60;;;;;;5074651;28;20282;-83
2023/06/18 10:55:11;;;;;;;0.40;0.40;;;13.40;98.50;;;;;;5088643;28;20199;-83
2023/06/18 10:57:43;;;;;;;1.73;0.90;;;13.30;98.50;;;;;;5094586;28;20653;-84
2023/06/18 11:00:25;;;;;;;1.38;0.70;;;13.20;98.80;;;;;;5094888;28;20229;-83
2023/06/18 11:03:02;;;;;;;0.95;0.80;;;13.20;98.60;;;;;;5076570;28;20311;-83
2023/06/18 11:05:51;;;;;;;1.15;0.50;;;13.20;98.90;;;;;;5074907;28;20195;-84
2023/06/18 11:08:31;;;;;;;0.80;0.70;;;13.20;99.00;;;;;;5074563;28;20222;-82
2023/06/18 11:11:06;;;;;;;1.73;0.38;;;13.10;99.30;;;;;;5073585;28;20192;-82
2023/06/18 11:13:41;;;;;;;0.40;0.40;;;13.20;99.20;;;;;;5073289;28;20195;-83
2023/06/18 11:16:19;;;;;;;0.90;0.57;;;13.10;99.70;;;;;;5073452;28;20191;-84
2023/06/18 11:18:53;;;;;;;0.55;0.50;;;13.00;99.80;;;;;;5073871;28;20655;-82
2023/06/18 11:21:25;;;;;;;0.50;0.50;;;12.90;99.90;;;;;;5073464;28;20310;-82
2023/06/18 11:23:59;;;;;;;0.47;0.47;;;13.00;99.90;;;;;;5053744;28;20185;-82
2023/06/18 11:26:30;;;;;;;0.60;0.50;;;13.00;99.90;;;;;;5054338;28;20191;-83
2023/06/18 11:29:03;;;;;;;0.50;0.50;;;13.10;99.90;;;;;;5071007;28;20198;-83
2023/06/18 11:31:37;;;;;;;1.27;0.60;;;12.90;99.90;;;;;;5081185;28;20287;-84
2023/06/18 11:34:12;;;;;;;0.73;0.50;;;12.90;99.90;;;;;;5074939;28;20196;-84
2023/06/18 11:36:44;;;;;;;0.40;0.40;;;12.90;99.90;;;;;;5078639;28;20199;-84
2023/06/18 11:39:18;;;;;;;0.60;0.60;;;13.00;99.90;;;;;;5074543;28;20226;-85
2023/06/18 11:41:50;;;;;;;1.08;0.57;;;13.00;99.90;;;;;;5086960;28;20216;-84
2023/06/18 11:44:28;;;;;;;1.80;0.55;;;12.90;99.90;;;;;;5075122;28;20207;-83
2023/06/18 11:47:04;;;;;;;0.80;0.60;;;12.90;99.90;;;;;;5080399;28;20191;-84
2023/06/18 11:49:36;;;;;;;1.13;0.80;;;12.90;99.90;;;;;;5080324;28;20199;-83
2023/06/18 11:52:14;;;;;;;1.10;0.70;;;12.80;99.90;;;;;;5082667;28;20193;-84
2023/06/18 11:54:49;;;;;;;1.05;0.80;;;12.90;99.90;;;;;;5062565;28;20286;-82
2023/06/18 11:57:24;;;;;;;1.58;0.80;;;12.80;99.90;;;;;;5074698;28;20179;-84
2023/06/18 11:59:56;;;;;;;2.28;1.20;;;12.90;99.90;;;;;;5073771;28;20562;-84
2023/06/18 12:02:30;;;;;;;1.42;1.23;;;12.90;99.90;;;;;;5076289;28;20196;-84
2023/06/18 12:05:07;;;;;;;1.08;0.70;;;12.90;99.90;;;;;;5054592;28;20219;-83
2023/06/18 12:07:42;;;;;;;1.30;0.90;;;12.90;99.90;;;;;;5054854;28;20255;-83
2023/06/18 12:10:15;;;;;;;1.65;0.90;;;12.90;99.90;;;;;;5080222;28;20566;-84
2023/06/18 12:12:57;;;;;;;1.30;0.82;;;12.70;99.90;;;;;;5067251;28;20219;-83
2023/06/18 12:15:39;;;;;;;0.80;0.80;;;12.70;99.90;;;;;;5074748;28;20259;-83
2023/06/18 12:18:15;;;;;;;1.58;0.80;;;12.80;99.90;;;;;;5073573;28;20282;-84
2023/06/18 12:20:50;;;;;;;1.08;0.80;;;12.70;99.90;;;;;;5080905;28;20229;-82
2023/06/18 12:23:22;;;;;;;2.47;0.95;;;12.60;99.90;;;;;;5081710;28;20539;-83
2023/06/18 12:25:53;;;;;;;1.10;1.00;;;12.80;99.90;;;;;;5080998;28;20184;-81
2023/06/18 12:28:31;;;;;;;1.20;1.10;;;12.80;99.90;;;;;;5079080;28;20231;-84
2023/06/18 12:31:09;;;;;;;1.10;1.00;;;12.80;99.90;;;;;;5079712;28;20219;-83
2023/06/18 12:33:45;;;;;;;3.28;0.90;;;12.80;99.90;;;;;;5080177;28;20223;-83
2023/06/18 12:36:16;;;;;;;1.42;1.17;;;12.80;99.90;;;;;;5077336;28;20200;-83
2023/06/18 12:38:48;;;;;;;1.10;1.00;;;12.80;99.90;;;;;;5081515;28;20188;-82
2023/06/18 12:41:25;;;;;;;1.10;1.00;;;12.70;99.90;;;;;;5080652;28;20245;-83
2023/06/18 12:44:15;;;;;;;1.20;1.10;;;12.70;99.90;;;;;;5051675;28;20279;-84
2023/06/18 12:46:49;;;;;;;2.33;1.50;;;12.70;99.90;;;;;;5053132;28;20201;-83
2023/06/18 12:49:22;;;;;;;2.13;1.20;;;12.70;99.90;;;;;;5068147;28;20643;-83
2023/06/18 12:51:53;;;;;;;1.73;1.15;;;12.70;99.90;;;;;;5073115;28;20198;-83
2023/06/18 12:54:26;;;;;;;1.55;1.30;;;12.50;99.90;;;;;;5074242;28;20194;-84
2023/06/18 12:56:58;;;;;;;1.73;1.30;;;12.40;99.90;;;;;;5075359;28;20210;-84
2023/06/18 12:59:29;;;;;;;2.42;1.40;;;12.30;99.90;;;;;;5076947;28;20199;-84
2023/06/18 13:02:01;;;;;;;2.05;1.30;;;12.30;99.90;;;;;;5085118;28;20235;-84
2023/06/18 13:04:34;;;;;;;4.13;1.40;;;12.20;99.90;;;;;;5077130;28;20210;-84
2023/06/18 13:07:07;;;;;;;1.30;1.10;;;12.20;99.90;;;;;;5077070;28;20216;-83
2023/06/18 13:09:39;;;;;;;1.45;1.20;;;12.20;99.90;;;;;;5076956;28;20199;-83
2023/06/18 13:12:14;;;;;;;1.95;1.20;;;12.20;99.90;;;;;;5085386;28;20223;-84
2023/06/18 13:14:45;;;;;;;3.80;1.48;;;12.20;99.90;;;;;;5084398;28;20230;-83
2023/06/18 13:17:16;;;;;;;2.47;1.33;;;12.10;99.90;;;;;;5089520;28;20207;-83